createdAt,value
2019-02-22T00:02:26.154Z,8.50
2019-02-22T00:04:55.126Z,8.50
2019-02-22T00:07:24.026Z,8.50
2019-02-22T00:09:52.829Z,8.50
2019-02-22T00:12:21.620Z,8.50
2019-02-22T00:14:50.444Z,8.50
2019-02-22T00:17:19.335Z,8.50
2019-02-22T00:19:48.697Z,8.50
2019-02-22T00:22:17.611Z,8.50
2019-02-22T00:24:46.578Z,8.50
2019-02-22T00:27:15.389Z,8.50
2019-02-22T00:29:44.235Z,8.50
2019-02-22T00:32:13.130Z,8.50
2019-02-22T00:34:42.092Z,8.50
2019-02-22T00:37:11.010Z,8.50
2019-02-22T00:39:39.910Z,8.50
2019-02-22T00:42:08.740Z,8.50
2019-02-22T00:44:37.561Z,8.50
2019-02-22T00:47:06.452Z,8.50
2019-02-22T00:49:35.290Z,8.40
2019-02-22T00:52:04.099Z,8.40
2019-02-22T00:54:32.923Z,8.40
2019-02-22T00:57:01.866Z,8.40
2019-02-22T00:59:30.934Z,8.40
2019-02-22T01:02:00.151Z,8.40
2019-02-22T01:04:29.552Z,8.40
2019-02-22T01:06:58.853Z,8.40
2019-02-22T01:09:28.152Z,8.40
2019-02-22T01:11:57.396Z,8.40
2019-02-22T01:14:26.703Z,8.40
2019-02-22T01:16:57.324Z,8.40
2019-02-22T01:19:26.664Z,8.40
2019-02-22T01:21:55.871Z,8.40
2019-02-22T01:24:25.046Z,8.40
2019-02-22T01:26:54.326Z,8.40
2019-02-22T01:29:23.611Z,8.40
2019-02-22T01:31:52.915Z,8.40
2019-02-22T01:34:22.184Z,8.40
2019-02-22T01:36:51.268Z,8.40
2019-02-22T01:39:20.320Z,8.40
2019-02-22T01:41:49.551Z,8.40
2019-02-22T01:44:22.317Z,8.40
2019-02-22T01:46:51.203Z,8.40
2019-02-22T01:49:20.023Z,8.40
2019-02-22T01:51:48.840Z,8.40
2019-02-22T01:54:17.658Z,8.40
2019-02-22T01:56:46.547Z,8.40
2019-02-22T01:59:15.453Z,8.40
2019-02-22T02:01:44.268Z,8.40
2019-02-22T02:04:13.058Z,8.40
2019-02-22T02:06:42.040Z,8.40
2019-02-22T02:09:11.076Z,8.40
2019-02-22T02:11:39.887Z,8.40
2019-02-22T02:14:08.831Z,8.40
2019-02-22T02:16:37.734Z,8.40
2019-02-22T02:19:06.613Z,8.40
2019-02-22T02:21:35.520Z,8.40
2019-02-22T02:24:04.539Z,8.40
2019-02-22T02:26:33.326Z,8.40
2019-02-22T02:29:02.230Z,8.30
2019-02-22T02:31:31.128Z,8.30
2019-02-22T02:34:00.035Z,8.30
2019-02-22T02:36:28.884Z,8.30
2019-02-22T02:38:57.706Z,8.30
2019-02-22T02:41:26.511Z,8.30
2019-02-22T02:43:55.396Z,8.30
2019-02-22T02:46:24.287Z,8.30
2019-02-22T02:48:53.122Z,8.30
2019-02-22T02:51:21.959Z,8.30
2019-02-22T02:53:50.799Z,8.20
2019-02-22T02:56:19.687Z,8.30
2019-02-22T02:58:48.524Z,8.30
2019-02-22T03:01:17.403Z,8.30
2019-02-22T03:03:46.207Z,8.30
2019-02-22T03:06:22.690Z,8.30
2019-02-22T03:08:51.991Z,8.20
2019-02-22T03:11:21.443Z,8.20
2019-02-22T03:13:50.814Z,8.20
2019-02-22T03:16:20.373Z,8.30
2019-02-22T03:18:49.697Z,8.20
2019-02-22T03:21:18.962Z,8.20
2019-02-22T03:23:48.197Z,8.20
2019-02-22T03:26:17.315Z,8.20
2019-02-22T03:28:46.552Z,8.20
2019-02-22T03:31:15.870Z,8.30
2019-02-22T03:33:45.403Z,8.30
2019-02-22T03:36:14.747Z,8.30
2019-02-22T03:38:44.028Z,8.30
2019-02-22T03:41:13.278Z,8.30
2019-02-22T03:43:42.467Z,8.30
2019-02-22T03:46:11.746Z,8.30
2019-02-22T03:48:41.010Z,8.30
2019-02-22T03:51:10.318Z,8.30
2019-02-22T03:53:43.540Z,8.30
2019-02-22T03:56:12.440Z,8.30
2019-02-22T03:58:41.409Z,8.30
2019-02-22T04:01:10.403Z,8.30
2019-02-22T04:03:39.287Z,8.30
2019-02-22T04:06:08.139Z,8.30
2019-02-22T04:08:37.024Z,8.20
2019-02-22T04:11:05.906Z,8.30
2019-02-22T04:13:34.724Z,8.20
2019-02-22T04:16:03.566Z,8.20
2019-02-22T04:18:32.537Z,8.20
2019-02-22T04:21:01.383Z,8.20
2019-02-22T04:23:30.211Z,8.20
2019-02-22T04:25:59.075Z,8.20
2019-02-22T04:28:27.876Z,8.20
2019-02-22T04:30:56.766Z,8.20
2019-02-22T04:33:25.670Z,8.30
2019-02-22T04:35:54.507Z,8.30
2019-02-22T04:38:23.295Z,8.30
2019-02-22T04:40:52.106Z,8.20
2019-02-22T04:43:20.943Z,8.20
2019-02-22T04:45:49.748Z,8.20
2019-02-22T04:48:18.558Z,8.20
2019-02-22T04:50:47.510Z,8.20
2019-02-22T04:53:16.431Z,8.20
2019-02-22T04:55:45.230Z,8.20
2019-02-22T04:58:14.055Z,8.20
2019-02-22T05:00:42.944Z,8.20
2019-02-22T05:03:11.917Z,8.20
2019-02-22T05:05:40.696Z,8.10
2019-02-22T05:08:09.539Z,8.10
2019-02-22T05:10:38.340Z,8.10
2019-02-22T05:13:07.146Z,8.10
2019-02-22T05:15:36.024Z,8.10
2019-02-22T05:18:04.833Z,8.10
2019-02-22T05:20:33.649Z,8.10
2019-02-22T05:23:04.382Z,8.10
2019-02-22T05:25:32.983Z,8.10
2019-02-22T05:28:01.888Z,8.10
2019-02-22T05:30:30.692Z,8.10
2019-02-22T05:32:59.486Z,8.20
2019-02-22T05:35:28.296Z,8.10
2019-02-22T05:37:57.137Z,8.10
2019-02-22T05:40:26.042Z,8.10
2019-02-22T05:42:54.879Z,8.10
2019-02-22T05:45:23.689Z,8.10
2019-02-22T05:47:52.518Z,8.20
2019-02-22T05:50:21.475Z,8.20
2019-02-22T05:52:50.406Z,8.10
2019-02-22T05:55:19.226Z,8.10
2019-02-22T05:57:48.026Z,8.10
2019-02-22T06:00:17.734Z,8.10
2019-02-22T06:02:46.552Z,8.20
2019-02-22T06:05:15.476Z,8.20
2019-02-22T06:07:44.308Z,8.10
2019-02-22T06:10:13.241Z,8.10
2019-02-22T06:12:42.107Z,8.10
2019-02-22T06:15:11.026Z,8.10
2019-02-22T06:17:39.863Z,8.10
2019-02-22T06:20:08.961Z,8.10
2019-02-22T06:22:37.780Z,8.10
2019-02-22T06:25:06.897Z,8.10
2019-02-22T06:27:35.760Z,8.10
2019-02-22T06:30:04.894Z,8.10
2019-02-22T06:32:33.779Z,8.10
2019-02-22T06:35:02.587Z,8.10
2019-02-22T06:37:31.475Z,8.10
2019-02-22T06:40:00.454Z,8.10
2019-02-22T06:42:29.423Z,8.10
2019-02-22T06:44:58.251Z,8.10
2019-02-22T06:47:27.182Z,8.10
2019-02-22T06:49:56.160Z,8.10
2019-02-22T06:52:24.994Z,8.10
2019-02-22T06:54:53.950Z,8.10
2019-02-22T06:57:22.776Z,8.10
2019-02-22T06:59:51.604Z,8.00
2019-02-22T07:02:20.494Z,8.00
2019-02-22T07:04:49.324Z,8.10
2019-02-22T07:07:18.171Z,8.10
2019-02-22T07:09:47.001Z,8.10
2019-02-22T07:12:34.631Z,8.10
2019-02-22T07:15:03.814Z,8.00
2019-02-22T07:17:32.642Z,8.00
2019-02-22T07:20:01.506Z,8.00
2019-02-22T07:22:30.434Z,8.00
2019-02-22T07:24:59.349Z,8.00
2019-02-22T07:27:28.151Z,8.00
2019-02-22T07:29:57.023Z,8.00
2019-02-22T07:32:25.858Z,8.00
2019-02-22T07:34:54.701Z,8.00
2019-02-22T07:37:23.637Z,7.90
2019-02-22T07:39:52.496Z,7.90
2019-02-22T07:42:21.334Z,8.00
2019-02-22T07:44:50.174Z,7.90
2019-02-22T07:47:18.991Z,7.90
2019-02-22T07:49:48.072Z,7.90
2019-02-22T07:52:16.951Z,7.90
2019-02-22T07:54:45.792Z,7.90
2019-02-22T07:57:14.703Z,7.90
2019-02-22T07:59:43.571Z,7.90
2019-02-22T08:02:12.422Z,7.90
2019-02-22T08:04:41.244Z,7.90
2019-02-22T08:07:10.078Z,7.90
2019-02-22T08:09:38.996Z,7.90
2019-02-22T08:12:07.833Z,7.80
2019-02-22T08:14:36.719Z,7.90
2019-02-22T08:17:05.623Z,7.80
2019-02-22T08:19:34.481Z,7.90
2019-02-22T08:22:03.692Z,7.90
2019-02-22T08:24:32.573Z,7.90
2019-02-22T08:27:01.432Z,7.90
2019-02-22T08:29:30.320Z,8.00
2019-02-22T08:31:59.141Z,8.00
2019-02-22T08:34:28.091Z,8.00
2019-02-22T08:36:56.927Z,8.10
2019-02-22T08:39:25.758Z,8.20
2019-02-22T08:41:54.604Z,8.10
2019-02-22T08:44:23.519Z,8.20
2019-02-22T08:46:52.420Z,8.20
2019-02-22T08:49:21.344Z,8.30
2019-02-22T08:51:50.162Z,8.30
2019-02-22T08:54:18.954Z,8.40
2019-02-22T08:56:47.803Z,8.40
2019-02-22T08:59:16.628Z,8.50
2019-02-22T09:01:45.523Z,8.50
2019-02-22T09:04:14.343Z,8.70
2019-02-22T09:06:43.272Z,8.70
2019-02-22T09:09:12.085Z,8.70
2019-02-22T09:11:40.925Z,8.70
2019-02-22T09:14:09.737Z,8.80
2019-02-22T09:16:38.719Z,8.80
2019-02-22T09:19:07.535Z,8.80
2019-02-22T09:21:36.389Z,8.80
2019-02-22T09:24:05.276Z,8.90
2019-02-22T09:26:34.113Z,8.90
2019-02-22T09:29:02.939Z,9.00
2019-02-22T09:31:31.852Z,9.00
2019-02-22T09:34:00.672Z,9.00
2019-02-22T09:36:29.501Z,9.10
2019-02-22T09:38:58.339Z,9.20
2019-02-22T09:41:27.151Z,9.30
2019-02-22T09:43:56.135Z,9.30
2019-02-22T09:46:24.967Z,9.30
2019-02-22T09:48:53.910Z,9.40
2019-02-22T09:51:22.881Z,9.40
2019-02-22T09:53:51.788Z,9.40
2019-02-22T09:56:20.627Z,9.30
2019-02-22T09:58:49.476Z,9.30
2019-02-22T10:01:18.278Z,9.40
2019-02-22T10:03:47.129Z,9.40
2019-02-22T10:06:15.988Z,9.40
2019-02-22T10:08:44.823Z,9.40
2019-02-22T10:11:13.730Z,9.30
2019-02-22T10:13:42.590Z,9.30
2019-02-22T10:16:11.486Z,9.40
2019-02-22T10:18:40.351Z,9.40
2019-02-22T10:21:09.317Z,9.40
2019-02-22T10:23:38.216Z,9.40
2019-02-22T10:26:07.031Z,9.40
2019-02-22T10:28:35.875Z,9.40
2019-02-22T10:31:04.793Z,9.40
2019-02-22T10:33:36.640Z,9.30
2019-02-22T10:36:04.283Z,9.30
2019-02-22T10:38:35.836Z,9.30
2019-02-22T10:41:03.656Z,9.20
2019-02-22T10:43:32.511Z,9.20
2019-02-22T10:46:01.305Z,9.10
2019-02-22T10:48:30.196Z,9.10
2019-02-22T10:50:59.498Z,9.00
2019-02-22T10:53:28.507Z,9.00
2019-02-22T10:55:57.331Z,8.90
2019-02-22T10:58:26.156Z,8.90
2019-02-22T11:00:55.072Z,8.90
2019-02-22T11:03:23.912Z,8.80
2019-02-22T11:05:52.736Z,8.70
2019-02-22T11:08:21.579Z,8.70
2019-02-22T11:10:50.437Z,8.70
2019-02-22T11:13:21.444Z,8.70
2019-02-22T11:15:49.988Z,8.70
2019-02-22T11:18:18.894Z,8.70
2019-02-22T11:20:47.716Z,8.70
2019-02-22T11:23:16.835Z,8.70
2019-02-22T11:25:45.739Z,8.70
2019-02-22T11:28:14.634Z,8.80
2019-02-22T11:30:43.576Z,8.80
2019-02-22T11:33:12.477Z,8.80
2019-02-22T11:35:41.303Z,8.80
2019-02-22T11:38:10.118Z,8.80
2019-02-22T11:40:39.041Z,8.90
2019-02-22T11:43:07.931Z,8.90
2019-02-22T11:45:36.819Z,9.00
2019-02-22T11:48:09.016Z,9.00
2019-02-22T11:50:36.286Z,9.00
2019-02-22T11:53:05.221Z,9.10
2019-02-22T11:55:34.295Z,9.20
2019-02-22T11:58:03.206Z,9.20
2019-02-22T12:00:32.623Z,9.20
2019-02-22T12:03:15.798Z,9.30
2019-02-22T12:05:32.084Z,9.30
2019-02-22T12:08:03.424Z,9.30
2019-02-22T12:10:31.536Z,9.30
2019-02-22T12:13:00.442Z,9.30
2019-02-22T12:15:31.423Z,9.30
2019-02-22T12:17:59.885Z,9.20
2019-02-22T12:20:28.696Z,9.20
2019-02-22T12:22:57.526Z,9.20
2019-02-22T12:25:26.407Z,9.10
2019-02-22T12:27:55.316Z,9.10
2019-02-22T12:30:25.674Z,9.10
2019-02-22T12:32:54.686Z,9.00
2019-02-22T12:35:23.495Z,8.90
2019-02-22T12:37:52.335Z,8.90
2019-02-22T12:40:21.319Z,8.90
2019-02-22T12:42:50.207Z,8.90
2019-02-22T12:45:19.028Z,8.90
2019-02-22T12:47:47.858Z,8.90
2019-02-22T12:50:16.664Z,8.90
2019-02-22T12:52:45.568Z,8.80
2019-02-22T12:55:14.380Z,8.90
2019-02-22T12:57:43.219Z,8.90
2019-02-22T13:00:12.963Z,8.90
2019-02-22T13:02:41.791Z,8.90
2019-02-22T13:05:12.711Z,8.80
2019-02-22T13:07:41.626Z,8.60
2019-02-22T13:10:10.599Z,8.50
2019-02-22T13:12:39.521Z,8.30
2019-02-22T13:15:14.173Z,8.10
2019-02-22T13:17:40.839Z,8.00
2019-02-22T13:20:10.178Z,7.80
2019-02-22T13:22:39.145Z,7.70
2019-02-22T13:25:08.203Z,7.60
2019-02-22T13:27:37.029Z,7.60
2019-02-22T13:30:06.340Z,7.60
2019-02-22T13:32:35.178Z,7.60
2019-02-22T13:35:04.246Z,7.50
2019-02-22T13:37:33.140Z,7.50
2019-02-22T13:40:03.154Z,7.50
2019-02-22T13:42:32.135Z,7.50
2019-02-22T13:45:01.161Z,7.40
2019-02-22T13:47:30.044Z,7.50
2019-02-22T13:49:58.959Z,7.50
2019-02-22T13:52:27.856Z,7.40
2019-02-22T13:54:56.699Z,7.40
2019-02-22T13:57:25.599Z,7.40
2019-02-22T13:59:54.488Z,7.40
2019-02-22T14:02:23.384Z,7.40
2019-02-22T14:04:52.291Z,7.30
2019-02-22T14:07:21.212Z,7.30
2019-02-22T14:09:50.108Z,7.30
2019-02-22T14:12:18.921Z,7.20
2019-02-22T14:14:47.756Z,7.10
2019-02-22T14:17:16.578Z,7.10
2019-02-22T14:19:45.402Z,7.10
2019-02-22T14:22:14.269Z,7.10
2019-02-22T14:24:43.108Z,7.10
2019-02-22T14:27:11.935Z,7.00
2019-02-22T14:29:40.856Z,7.00
2019-02-22T14:32:09.664Z,7.00
2019-02-22T14:34:40.730Z,7.00
2019-02-22T14:37:09.146Z,7.00
2019-02-22T14:39:38.930Z,7.10
2019-02-22T14:42:07.811Z,7.00
2019-02-22T14:44:36.740Z,7.00
2019-02-22T14:47:05.707Z,7.00
2019-02-22T14:49:34.591Z,6.90
2019-02-22T14:52:03.507Z,6.90
2019-02-22T14:54:32.340Z,6.80
2019-02-22T14:57:01.183Z,6.80
2019-02-22T14:59:30.065Z,6.70
2019-02-22T15:01:58.887Z,6.80
2019-02-22T15:04:27.779Z,6.70
2019-02-22T15:06:56.644Z,6.70
2019-02-22T15:09:25.460Z,6.60
2019-02-22T15:11:54.276Z,6.50
2019-02-22T15:14:23.107Z,6.50
2019-02-22T15:17:04.131Z,6.40
2019-02-22T15:19:32.947Z,6.30
2019-02-22T15:22:01.807Z,6.20
2019-02-22T15:24:32.984Z,6.10
2019-02-22T15:27:01.290Z,6.10
2019-02-22T15:29:30.114Z,6.00
2019-02-22T15:31:58.955Z,6.00
2019-02-22T15:34:27.776Z,5.90
2019-02-22T15:36:56.681Z,5.80
2019-02-22T15:39:25.566Z,5.80
2019-02-22T15:41:54.420Z,5.80
2019-02-22T15:44:23.305Z,5.80
2019-02-22T15:46:52.135Z,5.70
2019-02-22T15:49:20.999Z,5.70
2019-02-22T15:51:49.854Z,5.70
2019-02-22T15:54:18.655Z,5.60
2019-02-22T15:56:47.721Z,5.60
2019-02-22T15:59:16.942Z,5.50
2019-02-22T16:01:54.836Z,5.50
2019-02-22T16:04:21.979Z,5.40
2019-02-22T16:06:50.971Z,5.40
2019-02-22T16:09:19.864Z,5.40
2019-02-22T16:11:48.687Z,5.30
2019-02-22T16:14:17.577Z,5.30
2019-02-22T16:16:46.464Z,5.20
2019-02-22T16:19:15.264Z,5.10
2019-02-22T16:21:44.106Z,5.00
2019-02-22T16:24:12.987Z,5.00
2019-02-22T16:26:41.815Z,4.90
2019-02-22T16:29:10.613Z,4.80
2019-02-22T16:31:39.421Z,4.70
2019-02-22T16:34:08.227Z,4.60
2019-02-22T16:36:37.055Z,4.60
2019-02-22T16:39:06.615Z,4.50
2019-02-22T16:41:35.499Z,4.40
2019-02-22T16:44:06.487Z,4.40
2019-02-22T16:46:37.548Z,4.40
2019-02-22T16:49:08.291Z,4.30
2019-02-22T16:51:39.658Z,4.30
2019-02-22T16:54:10.959Z,4.20
2019-02-22T16:56:41.667Z,4.20
2019-02-22T16:59:15.103Z,4.20
2019-02-22T17:01:45.017Z,4.10
2019-02-22T17:04:15.838Z,4.10
2019-02-22T17:06:46.487Z,4.10
2019-02-22T17:09:17.620Z,4.10
2019-02-22T17:11:49.775Z,4.10
2019-02-22T17:14:35.422Z,4.00
2019-02-22T17:24:46.983Z,3.90
2019-02-22T17:28:01.188Z,3.90
2019-02-22T17:31:03.375Z,3.90
2019-02-22T17:37:14.998Z,3.90
2019-02-22T17:39:45.918Z,3.90
2019-02-22T17:42:14.391Z,3.90
2019-02-22T17:44:43.223Z,3.90
2019-02-22T17:47:12.080Z,3.90
2019-02-22T17:49:41.327Z,3.80
2019-02-22T17:52:10.435Z,3.90
2019-02-22T17:54:39.262Z,3.80
2019-02-22T17:57:08.051Z,3.90
2019-02-22T17:59:37.622Z,3.90
2019-02-22T18:02:06.459Z,3.90
2019-02-22T18:04:35.279Z,4.00
2019-02-22T18:07:04.168Z,4.00
2019-02-22T18:09:32.976Z,4.00
2019-02-22T18:12:01.799Z,4.00
2019-02-22T18:14:30.749Z,4.00
2019-02-22T18:17:08.067Z,4.00
2019-02-22T18:19:31.897Z,4.10
2019-02-22T18:22:00.707Z,4.10
2019-02-22T18:24:29.511Z,4.10
2019-02-22T18:26:58.364Z,4.10
2019-02-22T18:29:35.001Z,4.10
2019-02-22T18:31:58.053Z,4.10
2019-02-22T18:34:26.856Z,4.20
2019-02-22T18:36:55.707Z,4.10
2019-02-22T18:39:24.577Z,4.20
2019-02-22T18:41:53.406Z,4.20
2019-02-22T18:44:22.234Z,4.20
2019-02-22T18:46:51.061Z,4.20
2019-02-22T18:49:19.888Z,4.10
2019-02-22T18:51:48.775Z,4.10
2019-02-22T18:54:17.695Z,4.10
2019-02-22T18:56:46.539Z,4.10
2019-02-22T18:59:15.896Z,4.10
2019-02-22T19:01:45.005Z,4.10
2019-02-22T19:04:14.086Z,4.00
2019-02-22T19:06:43.308Z,4.00
2019-02-22T19:09:12.358Z,4.00
2019-02-22T19:11:42.042Z,4.00
2019-02-22T19:14:11.479Z,4.00
2019-02-22T19:16:41.099Z,4.00
2019-02-22T19:19:10.140Z,4.00
2019-02-22T19:21:39.119Z,4.00
2019-02-22T19:24:08.213Z,3.90
2019-02-22T19:26:38.240Z,3.90
2019-02-22T19:29:07.239Z,3.80
2019-02-22T19:31:36.125Z,3.80
2019-02-22T19:34:06.007Z,3.70
2019-02-22T19:36:35.011Z,3.70
2019-02-22T19:39:04.459Z,3.70
2019-02-22T19:41:33.451Z,3.70
2019-02-22T19:44:02.419Z,3.70
2019-02-22T19:46:31.311Z,3.70
2019-02-22T19:49:00.265Z,3.60
2019-02-22T19:51:29.251Z,3.60
2019-02-22T19:53:58.209Z,3.60
2019-02-22T19:56:27.356Z,3.60
2019-02-22T19:58:56.479Z,3.60
2019-02-22T20:01:25.369Z,3.60
2019-02-22T20:03:54.207Z,3.60
2019-02-22T20:06:23.137Z,3.60
2019-02-22T20:08:52.044Z,3.60
2019-02-22T20:11:21.344Z,3.50
2019-02-22T20:13:50.387Z,3.40
2019-02-22T20:16:19.366Z,3.40
2019-02-22T20:18:48.183Z,3.40
2019-02-22T20:21:17.040Z,3.40
2019-02-22T20:23:46.130Z,3.30
2019-02-22T20:26:14.979Z,3.30
2019-02-22T20:28:43.839Z,3.30
2019-02-22T20:31:19.817Z,3.30
2019-02-22T20:33:43.160Z,3.30
2019-02-22T20:36:12.160Z,3.30
2019-02-22T20:38:41.434Z,3.20
2019-02-22T20:41:10.811Z,3.10
2019-02-22T20:43:39.656Z,3.10
2019-02-22T20:46:09.009Z,3.10
2019-02-22T20:48:38.914Z,3.10
2019-02-22T20:51:08.245Z,3.00
2019-02-22T20:53:37.207Z,3.00
2019-02-22T20:56:06.245Z,3.00
2019-02-22T20:58:35.292Z,2.90
2019-02-22T21:01:14.257Z,2.90
2019-02-22T21:03:36.399Z,2.90
2019-02-22T21:06:06.829Z,2.80
2019-02-22T21:08:35.995Z,2.80
2019-02-22T21:11:04.928Z,2.80
2019-02-22T21:13:34.332Z,2.80
2019-02-22T21:16:03.268Z,2.80
2019-02-22T21:18:32.379Z,2.80
2019-02-22T21:21:01.334Z,2.70
2019-02-22T21:23:30.336Z,2.70
2019-02-22T21:26:00.723Z,2.70
2019-02-22T21:28:29.576Z,2.60
2019-02-22T21:30:58.424Z,2.60
2019-02-22T21:33:27.243Z,2.60
2019-02-22T21:35:56.253Z,2.50
2019-02-22T21:38:25.108Z,2.50
2019-02-22T21:40:54.097Z,2.50
2019-02-22T21:43:22.935Z,2.50
2019-02-22T21:45:51.776Z,2.40
2019-02-22T21:48:27.591Z,2.40
2019-02-22T21:50:51.349Z,2.30
2019-02-22T21:53:20.166Z,2.30
2019-02-22T21:55:49.048Z,2.30
2019-02-22T21:58:17.876Z,2.20
2019-02-22T22:00:46.715Z,2.30
2019-02-22T22:03:15.578Z,2.30
2019-02-22T22:05:44.391Z,2.40
2019-02-22T22:08:13.257Z,2.50
2019-02-22T22:10:42.087Z,2.50
2019-02-22T22:13:10.916Z,2.60
2019-02-22T22:15:39.730Z,2.60
2019-02-22T22:18:08.650Z,2.70
2019-02-22T22:20:37.474Z,2.70
2019-02-22T22:23:06.391Z,2.70
2019-02-22T22:25:35.343Z,2.80
2019-02-22T22:28:04.175Z,2.80
2019-02-22T22:30:33.163Z,2.90
2019-02-22T22:33:01.996Z,2.90
2019-02-22T22:35:30.823Z,2.90
2019-02-22T22:37:59.658Z,2.90
2019-02-22T22:40:28.550Z,2.90
2019-02-22T22:42:57.396Z,2.90
2019-02-22T22:45:26.301Z,3.00
2019-02-22T22:47:55.152Z,3.00
2019-02-22T22:50:24.043Z,3.00
2019-02-22T22:52:52.903Z,3.10
2019-02-22T22:55:21.743Z,3.10
2019-02-22T22:57:50.639Z,3.10
2019-02-22T23:00:49.653Z,3.20
2019-02-22T23:03:18.823Z,3.20
2019-02-22T23:05:47.787Z,3.20
2019-02-22T23:08:16.795Z,3.20
2019-02-22T23:10:45.788Z,3.30
2019-02-22T23:13:14.747Z,3.30
2019-02-22T23:15:43.567Z,3.40
2019-02-22T23:18:12.492Z,3.40
2019-02-22T23:20:41.429Z,3.50
2019-02-22T23:23:10.320Z,3.50
2019-02-22T23:25:39.307Z,3.50
2019-02-22T23:28:08.133Z,3.50
2019-02-22T23:30:37.137Z,3.50
2019-02-22T23:33:06.094Z,3.50
2019-02-22T23:35:35.074Z,3.50
2019-02-22T23:38:03.908Z,3.50
2019-02-22T23:40:32.744Z,3.40
2019-02-22T23:43:01.649Z,3.40
2019-02-22T23:45:30.647Z,3.40
2019-02-22T23:47:59.548Z,3.40
2019-02-22T23:50:28.516Z,3.40
2019-02-22T23:52:57.407Z,3.40
2019-02-22T23:55:26.400Z,3.40
2019-02-22T23:57:55.303Z,3.40
